sensor_id;sensor_type;location;lat;lon;timestamp;P1;durP1;ratioP1;P2;durP2;ratioP2
10465;SDS011;5280;42.600;23.556;2023-05-20T00:00:34;6.83;;;5.27;;
10465;SDS011;5280;42.600;23.556;2023-05-20T00:03:01;5.83;;;5.33;;
10465;SDS011;5280;42.600;23.556;2023-05-20T00:05:28;8.03;;;5.53;;
10465;SDS011;5280;42.600;23.556;2023-05-20T00:07:56;6.73;;;5.77;;
10465;SDS011;5280;42.600;23.556;2023-05-20T00:10:24;7.93;;;5.07;;
10465;SDS011;5280;42.600;23.556;2023-05-20T00:12:51;7.00;;;5.37;;
10465;SDS011;5280;42.600;23.556;2023-05-20T00:15:18;10.57;;;5.10;;
10465;SDS011;5280;42.600;23.556;2023-05-20T00:17:47;6.47;;;5.07;;
10465;SDS011;5280;42.600;23.556;2023-05-20T00:20:14;6.57;;;5.60;;
10465;SDS011;5280;42.600;23.556;2023-05-20T00:22:41;6.20;;;5.60;;
10465;SDS011;5280;42.600;23.556;2023-05-20T00:25:09;11.63;;;5.77;;
10465;SDS011;5280;42.600;23.556;2023-05-20T00:27:38;6.53;;;5.83;;
10465;SDS011;5280;42.600;23.556;2023-05-20T00:30:06;5.87;;;4.80;;
10465;SDS011;5280;42.600;23.556;2023-05-20T00:40:23;10.17;;;5.20;;
10465;SDS011;5280;42.600;23.556;2023-05-20T00:42:50;6.07;;;5.43;;
10465;SDS011;5280;42.600;23.556;2023-05-20T00:45:17;12.30;;;5.83;;
10465;SDS011;5280;42.600;23.556;2023-05-20T00:47:44;6.97;;;5.30;;
10465;SDS011;5280;42.600;23.556;2023-05-20T00:50:11;9.43;;;5.57;;
10465;SDS011;5280;42.600;23.556;2023-05-20T00:52:38;7.13;;;5.53;;
10465;SDS011;5280;42.600;23.556;2023-05-20T00:55:09;10.73;;;5.90;;
10465;SDS011;5280;42.600;23.556;2023-05-20T01:02:48;6.00;;;5.10;;
10465;SDS011;5280;42.600;23.556;2023-05-20T01:05:15;7.17;;;6.27;;
10465;SDS011;5280;42.600;23.556;2023-05-20T01:07:42;8.43;;;5.80;;
10465;SDS011;5280;42.600;23.556;2023-05-20T01:10:11;10.57;;;5.97;;
10465;SDS011;5280;42.600;23.556;2023-05-20T01:12:50;6.63;;;5.27;;
10465;SDS011;5280;42.600;23.556;2023-05-20T01:15:20;7.67;;;5.93;;
10465;SDS011;5280;42.600;23.556;2023-05-20T01:17:57;9.47;;;5.43;;
10465;SDS011;5280;42.600;23.556;2023-05-20T01:20:29;6.60;;;5.77;;
10465;SDS011;5280;42.600;23.556;2023-05-20T01:22:59;9.37;;;5.47;;
10465;SDS011;5280;42.600;23.556;2023-05-20T01:25:27;6.77;;;5.97;;
10465;SDS011;5280;42.600;23.556;2023-05-20T01:27:54;8.27;;;6.07;;
10465;SDS011;5280;42.600;23.556;2023-05-20T01:30:22;7.33;;;5.80;;
10465;SDS011;5280;42.600;23.556;2023-05-20T01:32:53;9.30;;;5.90;;
10465;SDS011;5280;42.600;23.556;2023-05-20T01:35:25;5.47;;;4.97;;
10465;SDS011;5280;42.600;23.556;2023-05-20T01:37:53;6.27;;;5.67;;
10465;SDS011;5280;42.600;23.556;2023-05-20T01:40:24;6.70;;;5.90;;
10465;SDS011;5280;42.600;23.556;2023-05-20T01:42:52;9.20;;;5.90;;
10465;SDS011;5280;42.600;23.556;2023-05-20T01:45:22;7.43;;;6.20;;
10465;SDS011;5280;42.600;23.556;2023-05-20T01:47:49;8.37;;;6.40;;
10465;SDS011;5280;42.600;23.556;2023-05-20T01:58:03;6.40;;;5.63;;
10465;SDS011;5280;42.600;23.556;2023-05-20T02:00:31;6.93;;;5.70;;
10465;SDS011;5280;42.600;23.556;2023-05-20T02:02:59;7.33;;;5.60;;
10465;SDS011;5280;42.600;23.556;2023-05-20T02:10:39;6.40;;;5.70;;
10465;SDS011;5280;42.600;23.556;2023-05-20T02:15:42;10.60;;;5.90;;
10465;SDS011;5280;42.600;23.556;2023-05-20T02:20:45;9.43;;;5.87;;
10465;SDS011;5280;42.600;23.556;2023-05-20T02:33:55;6.80;;;5.80;;
10465;SDS011;5280;42.600;23.556;2023-05-20T02:36:22;7.23;;;5.93;;
10465;SDS011;5280;42.600;23.556;2023-05-20T02:38:53;9.77;;;6.37;;
10465;SDS011;5280;42.600;23.556;2023-05-20T02:41:21;8.60;;;6.47;;
10465;SDS011;5280;42.600;23.556;2023-05-20T02:43:48;7.80;;;6.67;;
10465;SDS011;5280;42.600;23.556;2023-05-20T02:46:14;6.80;;;5.83;;
10465;SDS011;5280;42.600;23.556;2023-05-20T02:48:43;7.17;;;6.33;;
10465;SDS011;5280;42.600;23.556;2023-05-20T02:51:11;6.73;;;6.13;;
10465;SDS011;5280;42.600;23.556;2023-05-20T02:53:38;6.90;;;6.30;;
10465;SDS011;5280;42.600;23.556;2023-05-20T02:56:08;6.17;;;5.57;;
10465;SDS011;5280;42.600;23.556;2023-05-20T02:58:35;7.27;;;6.03;;
10465;SDS011;5280;42.600;23.556;2023-05-20T03:01:02;6.27;;;5.67;;
10465;SDS011;5280;42.600;23.556;2023-05-20T03:03:29;12.77;;;6.13;;
10465;SDS011;5280;42.600;23.556;2023-05-20T03:05:59;7.53;;;5.90;;
10465;SDS011;5280;42.600;23.556;2023-05-20T03:18:59;5.83;;;5.23;;
10465;SDS011;5280;42.600;23.556;2023-05-20T03:42:12;5.47;;;4.97;;
10465;SDS011;5280;42.600;23.556;2023-05-20T03:44:39;6.63;;;5.50;;
10465;SDS011;5280;42.600;23.556;2023-05-20T03:47:06;7.73;;;5.30;;
10465;SDS011;5280;42.600;23.556;2023-05-20T03:52:08;7.83;;;4.93;;
10465;SDS011;5280;42.600;23.556;2023-05-20T03:54:35;5.60;;;4.80;;
10465;SDS011;5280;42.600;23.556;2023-05-20T03:57:02;7.13;;;5.53;;
10465;SDS011;5280;42.600;23.556;2023-05-20T04:02:07;7.10;;;5.50;;
10465;SDS011;5280;42.600;23.556;2023-05-20T04:04:35;7.77;;;5.57;;
10465;SDS011;5280;42.600;23.556;2023-05-20T04:07:02;6.10;;;5.53;;
10465;SDS011;5280;42.600;23.556;2023-05-20T04:09:30;6.43;;;5.83;;
10465;SDS011;5280;42.600;23.556;2023-05-20T04:11:57;9.47;;;5.10;;
10465;SDS011;5280;42.600;23.556;2023-05-20T04:14:24;7.07;;;5.47;;
10465;SDS011;5280;42.600;23.556;2023-05-20T04:16:50;6.33;;;5.33;;
10465;SDS011;5280;42.600;23.556;2023-05-20T04:19:19;7.03;;;5.50;;
10465;SDS011;5280;42.600;23.556;2023-05-20T04:21:48;8.37;;;5.37;;
10465;SDS011;5280;42.600;23.556;2023-05-20T04:24:15;8.03;;;5.27;;
10465;SDS011;5280;42.600;23.556;2023-05-20T04:26:42;5.90;;;5.30;;
10465;SDS011;5280;42.600;23.556;2023-05-20T04:29:09;7.27;;;6.07;;
10465;SDS011;5280;42.600;23.556;2023-05-20T04:31:36;6.50;;;5.80;;
10465;SDS011;5280;42.600;23.556;2023-05-20T04:34:04;7.90;;;5.87;;
10465;SDS011;5280;42.600;23.556;2023-05-20T04:36:36;8.97;;;5.13;;
10465;SDS011;5280;42.600;23.556;2023-05-20T04:39:03;7.83;;;5.00;;
10465;SDS011;5280;42.600;23.556;2023-05-20T04:41:33;8.67;;;4.97;;
10465;SDS011;5280;42.600;23.556;2023-05-20T04:44:02;5.93;;;5.10;;
10465;SDS011;5280;42.600;23.556;2023-05-20T04:46:30;5.77;;;5.13;;
10465;SDS011;5280;42.600;23.556;2023-05-20T04:48:57;5.33;;;4.83;;
10465;SDS011;5280;42.600;23.556;2023-05-20T04:51:28;10.13;;;4.60;;
10465;SDS011;5280;42.600;23.556;2023-05-20T04:53:57;5.77;;;5.27;;
10465;SDS011;5280;42.600;23.556;2023-05-20T04:56:24;6.77;;;5.43;;
10465;SDS011;5280;42.600;23.556;2023-05-20T04:58:51;5.07;;;4.60;;
10465;SDS011;5280;42.600;23.556;2023-05-20T05:01:18;6.63;;;4.90;;
10465;SDS011;5280;42.600;23.556;2023-05-20T05:03:45;6.17;;;4.40;;
10465;SDS011;5280;42.600;23.556;2023-05-20T05:06:12;7.10;;;5.50;;
10465;SDS011;5280;42.600;23.556;2023-05-20T05:08:39;7.40;;;4.90;;
10465;SDS011;5280;42.600;23.556;2023-05-20T05:11:08;8.07;;;5.27;;
10465;SDS011;5280;42.600;23.556;2023-05-20T05:13:35;8.13;;;5.43;;
10465;SDS011;5280;42.600;23.556;2023-05-20T05:16:01;6.63;;;5.50;;
10465;SDS011;5280;42.600;23.556;2023-05-20T05:18:32;6.57;;;5.77;;
10465;SDS011;5280;42.600;23.556;2023-05-20T05:20:59;8.37;;;5.87;;
10465;SDS011;5280;42.600;23.556;2023-05-20T05:23:26;7.37;;;5.50;;
10465;SDS011;5280;42.600;23.556;2023-05-20T05:25:54;6.13;;;5.53;;
10465;SDS011;5280;42.600;23.556;2023-05-20T05:28:22;6.30;;;5.63;;
10465;SDS011;5280;42.600;23.556;2023-05-20T05:30:50;6.17;;;5.20;;
10465;SDS011;5280;42.600;23.556;2023-05-20T05:33:19;5.97;;;4.97;;
10465;SDS011;5280;42.600;23.556;2023-05-20T05:35:46;5.97;;;5.37;;
10465;SDS011;5280;42.600;23.556;2023-05-20T05:38:13;6.53;;;5.40;;
10465;SDS011;5280;42.600;23.556;2023-05-20T05:40:40;6.47;;;5.87;;
10465;SDS011;5280;42.600;23.556;2023-05-20T05:43:07;8.07;;;5.93;;
10465;SDS011;5280;42.600;23.556;2023-05-20T05:45:35;7.07;;;6.10;;
10465;SDS011;5280;42.600;23.556;2023-05-20T05:48:02;6.10;;;5.50;;
10465;SDS011;5280;42.600;23.556;2023-05-20T05:50:32;7.60;;;6.37;;
10465;SDS011;5280;42.600;23.556;2023-05-20T05:52:59;9.10;;;6.10;;
10465;SDS011;5280;42.600;23.556;2023-05-20T05:55:29;5.70;;;5.10;;
10465;SDS011;5280;42.600;23.556;2023-05-20T05:57:56;7.13;;;5.53;;
10465;SDS011;5280;42.600;23.556;2023-05-20T06:00:23;7.93;;;6.90;;
10465;SDS011;5280;42.600;23.556;2023-05-20T06:02:51;10.30;;;6.30;;
10465;SDS011;5280;42.600;23.556;2023-05-20T06:05:18;6.60;;;6.00;;
10465;SDS011;5280;42.600;23.556;2023-05-20T06:07:45;6.20;;;5.40;;
10465;SDS011;5280;42.600;23.556;2023-05-20T06:10:12;8.20;;;7.00;;
10465;SDS011;5280;42.600;23.556;2023-05-20T06:12:39;6.97;;;6.33;;
10465;SDS011;5280;42.600;23.556;2023-05-20T06:15:06;6.43;;;5.83;;
10465;SDS011;5280;42.600;23.556;2023-05-20T06:17:34;6.17;;;5.60;;
10465;SDS011;5280;42.600;23.556;2023-05-20T06:20:03;5.50;;;5.10;;
10465;SDS011;5280;42.600;23.556;2023-05-20T06:22:30;7.60;;;5.60;;
10465;SDS011;5280;42.600;23.556;2023-05-20T06:24:57;6.37;;;5.03;;
10465;SDS011;5280;42.600;23.556;2023-05-20T06:27:26;6.80;;;5.67;;
10465;SDS011;5280;42.600;23.556;2023-05-20T06:29:53;7.63;;;5.97;;
10465;SDS011;5280;42.600;23.556;2023-05-20T06:32:20;6.00;;;5.17;;
10465;SDS011;5280;42.600;23.556;2023-05-20T06:34:47;5.00;;;4.60;;
10465;SDS011;5280;42.600;23.556;2023-05-20T06:37:16;5.47;;;4.97;;
10465;SDS011;5280;42.600;23.556;2023-05-20T06:39:43;5.43;;;4.73;;
10465;SDS011;5280;42.600;23.556;2023-05-20T06:42:11;5.37;;;4.67;;
10465;SDS011;5280;42.600;23.556;2023-05-20T06:44:38;5.40;;;4.47;;
10465;SDS011;5280;42.600;23.556;2023-05-20T06:47:05;4.90;;;4.37;;
10465;SDS011;5280;42.600;23.556;2023-05-20T06:49:32;5.20;;;4.70;;
10465;SDS011;5280;42.600;23.556;2023-05-20T06:51:59;6.47;;;5.10;;
10465;SDS011;5280;42.600;23.556;2023-05-20T06:54:27;6.03;;;5.43;;
10465;SDS011;5280;42.600;23.556;2023-05-20T06:56:54;8.03;;;5.83;;
10465;SDS011;5280;42.600;23.556;2023-05-20T06:59:21;5.27;;;4.80;;
10465;SDS011;5280;42.600;23.556;2023-05-20T07:01:48;6.30;;;5.00;;
10465;SDS011;5280;42.600;23.556;2023-05-20T07:04:15;5.00;;;4.60;;
10465;SDS011;5280;42.600;23.556;2023-05-20T07:06:42;5.73;;;5.33;;
10465;SDS011;5280;42.600;23.556;2023-05-20T07:09:09;5.27;;;4.73;;
10465;SDS011;5280;42.600;23.556;2023-05-20T07:11:37;5.30;;;4.90;;
10465;SDS011;5280;42.600;23.556;2023-05-20T07:14:04;6.87;;;4.70;;
10465;SDS011;5280;42.600;23.556;2023-05-20T07:16:32;5.00;;;4.53;;
10465;SDS011;5280;42.600;23.556;2023-05-20T07:19:00;5.20;;;4.70;;
10465;SDS011;5280;42.600;23.556;2023-05-20T07:21:28;5.67;;;4.83;;
10465;SDS011;5280;42.600;23.556;2023-05-20T07:23:55;4.90;;;4.50;;
10465;SDS011;5280;42.600;23.556;2023-05-20T07:26:22;5.40;;;4.83;;
10465;SDS011;5280;42.600;23.556;2023-05-20T07:28:50;8.60;;;4.93;;
10465;SDS011;5280;42.600;23.556;2023-05-20T07:31:17;5.03;;;4.60;;
10465;SDS011;5280;42.600;23.556;2023-05-20T07:33:44;4.60;;;4.30;;
10465;SDS011;5280;42.600;23.556;2023-05-20T07:36:11;5.30;;;4.77;;
10465;SDS011;5280;42.600;23.556;2023-05-20T07:38:38;5.10;;;4.70;;
10465;SDS011;5280;42.600;23.556;2023-05-20T07:41:05;5.67;;;4.57;;
10465;SDS011;5280;42.600;23.556;2023-05-20T07:43:33;5.63;;;4.87;;
10465;SDS011;5280;42.600;23.556;2023-05-20T07:46:01;5.17;;;4.73;;
10465;SDS011;5280;42.600;23.556;2023-05-20T07:48:28;6.00;;;5.50;;
10465;SDS011;5280;42.600;23.556;2023-05-20T07:50:55;5.23;;;4.83;;
10465;SDS011;5280;42.600;23.556;2023-05-20T07:53:23;5.90;;;5.40;;
10465;SDS011;5280;42.600;23.556;2023-05-20T07:55:50;5.43;;;4.93;;
10465;SDS011;5280;42.600;23.556;2023-05-20T07:58:17;6.20;;;5.53;;
10465;SDS011;5280;42.600;23.556;2023-05-20T08:00:44;6.43;;;5.57;;
10465;SDS011;5280;42.600;23.556;2023-05-20T08:03:12;6.07;;;5.47;;
10465;SDS011;5280;42.600;23.556;2023-05-20T08:05:40;6.07;;;5.57;;
10465;SDS011;5280;42.600;23.556;2023-05-20T08:08:07;7.40;;;5.73;;
10465;SDS011;5280;42.600;23.556;2023-05-20T08:10:34;6.80;;;5.80;;
10465;SDS011;5280;42.600;23.556;2023-05-20T08:13:01;6.47;;;5.87;;
10465;SDS011;5280;42.600;23.556;2023-05-20T08:15:28;6.30;;;5.63;;
10465;SDS011;5280;42.600;23.556;2023-05-20T08:17:55;9.67;;;5.50;;
10465;SDS011;5280;42.600;23.556;2023-05-20T08:20:23;6.40;;;5.70;;
10465;SDS011;5280;42.600;23.556;2023-05-20T08:22:50;6.40;;;5.80;;
10465;SDS011;5280;42.600;23.556;2023-05-20T08:25:17;5.73;;;5.23;;
10465;SDS011;5280;42.600;23.556;2023-05-20T08:27:44;7.23;;;5.93;;
10465;SDS011;5280;42.600;23.556;2023-05-20T08:30:11;7.23;;;5.70;;
10465;SDS011;5280;42.600;23.556;2023-05-20T08:32:38;7.03;;;6.00;;
10465;SDS011;5280;42.600;23.556;2023-05-20T08:35:06;5.60;;;5.20;;
10465;SDS011;5280;42.600;23.556;2023-05-20T08:37:34;5.80;;;5.30;;
10465;SDS011;5280;42.600;23.556;2023-05-20T08:40:01;6.00;;;5.50;;
10465;SDS011;5280;42.600;23.556;2023-05-20T08:42:29;6.60;;;6.00;;
10465;SDS011;5280;42.600;23.556;2023-05-20T08:44:56;5.97;;;5.40;;
10465;SDS011;5280;42.600;23.556;2023-05-20T08:47:25;5.93;;;5.43;;
10465;SDS011;5280;42.600;23.556;2023-05-20T08:49:52;7.13;;;6.43;;
10465;SDS011;5280;42.600;23.556;2023-05-20T08:52:21;8.33;;;7.60;;
10465;SDS011;5280;42.600;23.556;2023-05-20T08:54:50;6.97;;;6.27;;
10465;SDS011;5280;42.600;23.556;2023-05-20T08:57:17;7.13;;;5.77;;
10465;SDS011;5280;42.600;23.556;2023-05-20T08:59:47;5.90;;;5.40;;
10465;SDS011;5280;42.600;23.556;2023-05-20T09:02:15;6.37;;;5.37;;
10465;SDS011;5280;42.600;23.556;2023-05-20T09:04:41;6.57;;;5.53;;
10465;SDS011;5280;42.600;23.556;2023-05-20T09:07:08;5.40;;;4.50;;
10465;SDS011;5280;42.600;23.556;2023-05-20T09:09:35;5.33;;;4.93;;
10465;SDS011;5280;42.600;23.556;2023-05-20T09:12:04;5.13;;;4.63;;
10465;SDS011;5280;42.600;23.556;2023-05-20T09:14:31;7.13;;;5.20;;
10465;SDS011;5280;42.600;23.556;2023-05-20T09:16:58;5.67;;;5.27;;
10465;SDS011;5280;42.600;23.556;2023-05-20T09:19:25;5.83;;;5.10;;
10465;SDS011;5280;42.600;23.556;2023-05-20T09:21:52;6.93;;;5.20;;
10465;SDS011;5280;42.600;23.556;2023-05-20T09:24:21;5.17;;;4.77;;
10465;SDS011;5280;42.600;23.556;2023-05-20T09:26:49;6.37;;;5.10;;
10465;SDS011;5280;42.600;23.556;2023-05-20T09:29:17;5.70;;;5.20;;
10465;SDS011;5280;42.600;23.556;2023-05-20T09:31:45;5.13;;;4.73;;
10465;SDS011;5280;42.600;23.556;2023-05-20T09:34:12;8.47;;;5.30;;
10465;SDS011;5280;42.600;23.556;2023-05-20T09:36:40;8.20;;;5.30;;
10465;SDS011;5280;42.600;23.556;2023-05-20T09:39:13;6.13;;;5.57;;
10465;SDS011;5280;42.600;23.556;2023-05-20T09:41:44;5.33;;;4.93;;
10465;SDS011;5280;42.600;23.556;2023-05-20T09:44:15;6.47;;;5.20;;
10465;SDS011;5280;42.600;23.556;2023-05-20T09:46:46;6.00;;;4.90;;
10465;SDS011;5280;42.600;23.556;2023-05-20T09:54:18;5.27;;;4.23;;
10465;SDS011;5280;42.600;23.556;2023-05-20T09:56:46;4.70;;;4.40;;
10465;SDS011;5280;42.600;23.556;2023-05-20T09:59:14;4.90;;;4.50;;
10465;SDS011;5280;42.600;23.556;2023-05-20T10:01:44;4.93;;;4.43;;
10465;SDS011;5280;42.600;23.556;2023-05-20T10:04:11;4.87;;;4.40;;
10465;SDS011;5280;42.600;23.556;2023-05-20T10:06:45;4.53;;;4.23;;
10465;SDS011;5280;42.600;23.556;2023-05-20T10:09:28;6.33;;;4.43;;
10465;SDS011;5280;42.600;23.556;2023-05-20T10:12:06;4.30;;;4.00;;
10465;SDS011;5280;42.600;23.556;2023-05-20T10:14:46;5.17;;;4.57;;
10465;SDS011;5280;42.600;23.556;2023-05-20T10:17:25;4.70;;;4.30;;
10465;SDS011;5280;42.600;23.556;2023-05-20T10:19:57;5.03;;;3.70;;
10465;SDS011;5280;42.600;23.556;2023-05-20T10:22:28;3.70;;;3.40;;
10465;SDS011;5280;42.600;23.556;2023-05-20T10:24:59;4.87;;;3.77;;
10465;SDS011;5280;42.600;23.556;2023-05-20T10:27:40;4.67;;;3.70;;
10465;SDS011;5280;42.600;23.556;2023-05-20T10:30:14;4.20;;;3.90;;
10465;SDS011;5280;42.600;23.556;2023-05-20T10:32:50;4.20;;;3.90;;
10465;SDS011;5280;42.600;23.556;2023-05-20T10:35:22;4.13;;;3.83;;
10465;SDS011;5280;42.600;23.556;2023-05-20T10:37:52;4.60;;;3.70;;
10465;SDS011;5280;42.600;23.556;2023-05-20T10:40:20;4.40;;;4.00;;
10465;SDS011;5280;42.600;23.556;2023-05-20T10:42:47;4.00;;;3.60;;
10465;SDS011;5280;42.600;23.556;2023-05-20T10:45:23;5.53;;;3.80;;
10465;SDS011;5280;42.600;23.556;2023-05-20T10:47:56;4.23;;;3.83;;
10465;SDS011;5280;42.600;23.556;2023-05-20T10:50:28;6.30;;;3.70;;
10465;SDS011;5280;42.600;23.556;2023-05-20T10:53:03;4.67;;;3.80;;
10465;SDS011;5280;42.600;23.556;2023-05-20T10:55:34;4.20;;;3.80;;
10465;SDS011;5280;42.600;23.556;2023-05-20T10:58:03;5.80;;;4.30;;
10465;SDS011;5280;42.600;23.556;2023-05-20T11:00:30;4.47;;;4.00;;
10465;SDS011;5280;42.600;23.556;2023-05-20T11:02:58;6.93;;;4.60;;
10465;SDS011;5280;42.600;23.556;2023-05-20T11:05:26;4.20;;;3.90;;
10465;SDS011;5280;42.600;23.556;2023-05-20T11:07:59;4.07;;;3.77;;
10465;SDS011;5280;42.600;23.556;2023-05-20T11:10:26;5.30;;;3.63;;
10465;SDS011;5280;42.600;23.556;2023-05-20T11:12:54;5.33;;;4.10;;
10465;SDS011;5280;42.600;23.556;2023-05-20T11:15:22;4.47;;;4.07;;
10465;SDS011;5280;42.600;23.556;2023-05-20T11:17:50;4.30;;;3.93;;
10465;SDS011;5280;42.600;23.556;2023-05-20T11:20:19;3.97;;;3.67;;
10465;SDS011;5280;42.600;23.556;2023-05-20T11:22:48;5.17;;;4.20;;
10465;SDS011;5280;42.600;23.556;2023-05-20T11:25:15;4.77;;;4.30;;
10465;SDS011;5280;42.600;23.556;2023-05-20T11:27:43;4.83;;;3.90;;
10465;SDS011;5280;42.600;23.556;2023-05-20T11:30:10;5.50;;;3.83;;
10465;SDS011;5280;42.600;23.556;2023-05-20T11:32:42;4.97;;;4.47;;
10465;SDS011;5280;42.600;23.556;2023-05-20T11:35:23;4.63;;;4.23;;
10465;SDS011;5280;42.600;23.556;2023-05-20T11:37:53;4.20;;;3.90;;
10465;SDS011;5280;42.600;23.556;2023-05-20T11:40:25;5.90;;;4.30;;
10465;SDS011;5280;42.600;23.556;2023-05-20T11:42:53;13.17;;;4.40;;
10465;SDS011;5280;42.600;23.556;2023-05-20T11:45:21;6.27;;;4.40;;
10465;SDS011;5280;42.600;23.556;2023-05-20T11:47:57;5.67;;;4.00;;
10465;SDS011;5280;42.600;23.556;2023-05-20T11:50:27;4.33;;;3.97;;
10465;SDS011;5280;42.600;23.556;2023-05-20T11:52:59;5.53;;;4.03;;
10465;SDS011;5280;42.600;23.556;2023-05-20T11:55:28;5.00;;;4.50;;
10465;SDS011;5280;42.600;23.556;2023-05-20T11:57:57;5.20;;;4.50;;
10465;SDS011;5280;42.600;23.556;2023-05-20T12:00:25;5.10;;;4.10;;
10465;SDS011;5280;42.600;23.556;2023-05-20T12:02:52;5.23;;;4.03;;
10465;SDS011;5280;42.600;23.556;2023-05-20T12:05:19;5.37;;;4.10;;
10465;SDS011;5280;42.600;23.556;2023-05-20T12:07:47;4.20;;;3.70;;
10465;SDS011;5280;42.600;23.556;2023-05-20T12:10:14;5.40;;;4.30;;
10465;SDS011;5280;42.600;23.556;2023-05-20T12:12:42;9.13;;;4.87;;
10465;SDS011;5280;42.600;23.556;2023-05-20T12:15:09;9.50;;;4.97;;
10465;SDS011;5280;42.600;23.556;2023-05-20T12:17:44;6.33;;;4.57;;
10465;SDS011;5280;42.600;23.556;2023-05-20T12:20:12;6.43;;;4.80;;
10465;SDS011;5280;42.600;23.556;2023-05-20T12:22:41;6.20;;;4.73;;
10465;SDS011;5280;42.600;23.556;2023-05-20T12:25:09;5.63;;;4.87;;
10465;SDS011;5280;42.600;23.556;2023-05-20T12:27:37;4.97;;;4.27;;
10465;SDS011;5280;42.600;23.556;2023-05-20T12:30:04;5.33;;;4.27;;
10465;SDS011;5280;42.600;23.556;2023-05-20T12:32:33;6.27;;;4.37;;
10465;SDS011;5280;42.600;23.556;2023-05-20T12:35:00;4.23;;;3.93;;
10465;SDS011;5280;42.600;23.556;2023-05-20T12:37:27;5.00;;;4.00;;
10465;SDS011;5280;42.600;23.556;2023-05-20T12:39:54;4.97;;;4.50;;
10465;SDS011;5280;42.600;23.556;2023-05-20T12:42:22;5.40;;;5.00;;
10465;SDS011;5280;42.600;23.556;2023-05-20T12:44:49;6.00;;;4.63;;
10465;SDS011;5280;42.600;23.556;2023-05-20T12:47:16;5.07;;;4.67;;
10465;SDS011;5280;42.600;23.556;2023-05-20T12:49:44;4.77;;;4.37;;
10465;SDS011;5280;42.600;23.556;2023-05-20T12:52:11;5.00;;;4.60;;
10465;SDS011;5280;42.600;23.556;2023-05-20T12:54:38;6.27;;;4.37;;
10465;SDS011;5280;42.600;23.556;2023-05-20T12:57:05;4.57;;;4.20;;
10465;SDS011;5280;42.600;23.556;2023-05-20T12:59:33;4.77;;;4.37;;
10465;SDS011;5280;42.600;23.556;2023-05-20T13:02:00;4.43;;;4.13;;
10465;SDS011;5280;42.600;23.556;2023-05-20T13:04:28;5.00;;;4.50;;
10465;SDS011;5280;42.600;23.556;2023-05-20T13:06:54;4.37;;;4.07;;
10465;SDS011;5280;42.600;23.556;2023-05-20T13:09:21;4.50;;;4.20;;
10465;SDS011;5280;42.600;23.556;2023-05-20T13:11:48;4.17;;;3.77;;
10465;SDS011;5280;42.600;23.556;2023-05-20T13:14:15;4.93;;;4.53;;
10465;SDS011;5280;42.600;23.556;2023-05-20T13:16:43;5.63;;;5.00;;
10465;SDS011;5280;42.600;23.556;2023-05-20T13:19:10;4.90;;;4.50;;
10465;SDS011;5280;42.600;23.556;2023-05-20T13:21:37;5.40;;;4.90;;
10465;SDS011;5280;42.600;23.556;2023-05-20T13:24:04;5.10;;;4.60;;
10465;SDS011;5280;42.600;23.556;2023-05-20T13:26:32;5.53;;;4.80;;
10465;SDS011;5280;42.600;23.556;2023-05-20T13:28:59;6.03;;;5.40;;
10465;SDS011;5280;42.600;23.556;2023-05-20T13:31:26;5.53;;;5.03;;
10465;SDS011;5280;42.600;23.556;2023-05-20T13:33:55;4.47;;;4.17;;
10465;SDS011;5280;42.600;23.556;2023-05-20T13:36:23;5.03;;;4.63;;
10465;SDS011;5280;42.600;23.556;2023-05-20T13:38:50;5.40;;;4.90;;
10465;SDS011;5280;42.600;23.556;2023-05-20T13:41:17;4.87;;;4.57;;
10465;SDS011;5280;42.600;23.556;2023-05-20T13:43:44;5.40;;;4.90;;
10465;SDS011;5280;42.600;23.556;2023-05-20T13:46:11;4.97;;;4.50;;
10465;SDS011;5280;42.600;23.556;2023-05-20T13:48:37;5.10;;;4.60;;
10465;SDS011;5280;42.600;23.556;2023-05-20T13:51:06;6.03;;;4.60;;
10465;SDS011;5280;42.600;23.556;2023-05-20T13:53:32;4.77;;;4.37;;
10465;SDS011;5280;42.600;23.556;2023-05-20T13:55:59;4.80;;;4.40;;
10465;SDS011;5280;42.600;23.556;2023-05-20T13:58:26;6.53;;;4.37;;
10465;SDS011;5280;42.600;23.556;2023-05-20T14:00:53;4.70;;;4.30;;
10465;SDS011;5280;42.600;23.556;2023-05-20T14:03:21;4.80;;;4.33;;
10465;SDS011;5280;42.600;23.556;2023-05-20T14:05:47;6.40;;;4.60;;
10465;SDS011;5280;42.600;23.556;2023-05-20T14:08:16;5.70;;;5.20;;
10465;SDS011;5280;42.600;23.556;2023-05-20T14:10:42;5.53;;;5.07;;
10465;SDS011;5280;42.600;23.556;2023-05-20T14:13:10;5.50;;;5.00;;
10465;SDS011;5280;42.600;23.556;2023-05-20T14:15:37;5.47;;;4.97;;
10465;SDS011;5280;42.600;23.556;2023-05-20T14:18:04;4.70;;;4.30;;
10465;SDS011;5280;42.600;23.556;2023-05-20T14:20:32;7.83;;;5.23;;
10465;SDS011;5280;42.600;23.556;2023-05-20T14:23:02;8.20;;;5.50;;
10465;SDS011;5280;42.600;23.556;2023-05-20T14:25:30;7.07;;;4.83;;
10465;SDS011;5280;42.600;23.556;2023-05-20T14:27:57;6.90;;;4.77;;
10465;SDS011;5280;42.600;23.556;2023-05-20T14:30:24;5.90;;;4.80;;
10465;SDS011;5280;42.600;23.556;2023-05-20T14:32:51;4.87;;;4.47;;
10465;SDS011;5280;42.600;23.556;2023-05-20T14:35:18;5.43;;;4.93;;
10465;SDS011;5280;42.600;23.556;2023-05-20T14:37:45;5.43;;;4.57;;
10465;SDS011;5280;42.600;23.556;2023-05-20T14:40:13;5.00;;;4.40;;
10465;SDS011;5280;42.600;23.556;2023-05-20T14:42:42;4.80;;;4.40;;
10465;SDS011;5280;42.600;23.556;2023-05-20T14:45:09;5.03;;;4.53;;
10465;SDS011;5280;42.600;23.556;2023-05-20T14:47:39;5.27;;;4.77;;
10465;SDS011;5280;42.600;23.556;2023-05-20T14:50:06;4.90;;;4.20;;
10465;SDS011;5280;42.600;23.556;2023-05-20T14:52:34;7.60;;;4.87;;
10465;SDS011;5280;42.600;23.556;2023-05-20T14:55:06;6.83;;;4.80;;
10465;SDS011;5280;42.600;23.556;2023-05-20T14:57:36;5.53;;;4.80;;
10465;SDS011;5280;42.600;23.556;2023-05-20T15:00:05;5.20;;;4.70;;
10465;SDS011;5280;42.600;23.556;2023-05-20T15:02:33;5.00;;;4.60;;
10465;SDS011;5280;42.600;23.556;2023-05-20T15:05:00;7.50;;;4.90;;
10465;SDS011;5280;42.600;23.556;2023-05-20T15:07:27;5.50;;;4.53;;
10465;SDS011;5280;42.600;23.556;2023-05-20T15:09:54;5.73;;;5.23;;
10465;SDS011;5280;42.600;23.556;2023-05-20T15:12:21;4.73;;;4.30;;
10465;SDS011;5280;42.600;23.556;2023-05-20T15:14:48;5.83;;;4.60;;
10465;SDS011;5280;42.600;23.556;2023-05-20T15:17:16;5.00;;;4.60;;
10465;SDS011;5280;42.600;23.556;2023-05-20T15:19:44;4.80;;;4.33;;
10465;SDS011;5280;42.600;23.556;2023-05-20T15:22:11;4.97;;;4.47;;
10465;SDS011;5280;42.600;23.556;2023-05-20T15:24:38;5.00;;;4.53;;
10465;SDS011;5280;42.600;23.556;2023-05-20T15:27:04;5.97;;;4.93;;
10465;SDS011;5280;42.600;23.556;2023-05-20T15:29:32;4.83;;;4.43;;
10465;SDS011;5280;42.600;23.556;2023-05-20T15:31:58;4.30;;;4.00;;
10465;SDS011;5280;42.600;23.556;2023-05-20T15:34:27;4.67;;;4.17;;
10465;SDS011;5280;42.600;23.556;2023-05-20T15:36:54;5.27;;;4.47;;
10465;SDS011;5280;42.600;23.556;2023-05-20T15:39:20;4.80;;;4.03;;
10465;SDS011;5280;42.600;23.556;2023-05-20T15:41:47;4.90;;;4.13;;
10465;SDS011;5280;42.600;23.556;2023-05-20T15:44:16;4.43;;;4.03;;
10465;SDS011;5280;42.600;23.556;2023-05-20T15:46:43;4.70;;;3.90;;
10465;SDS011;5280;42.600;23.556;2023-05-20T15:49:10;4.27;;;3.87;;
10465;SDS011;5280;42.600;23.556;2023-05-20T15:51:39;4.53;;;4.13;;
10465;SDS011;5280;42.600;23.556;2023-05-20T15:54:06;5.57;;;4.03;;
10465;SDS011;5280;42.600;23.556;2023-05-20T15:56:32;4.10;;;3.70;;
10465;SDS011;5280;42.600;23.556;2023-05-20T15:58:59;6.23;;;3.73;;
10465;SDS011;5280;42.600;23.556;2023-05-20T16:01:26;4.43;;;3.60;;
10465;SDS011;5280;42.600;23.556;2023-05-20T16:03:53;5.97;;;3.70;;
10465;SDS011;5280;42.600;23.556;2023-05-20T16:06:20;5.03;;;3.70;;
10465;SDS011;5280;42.600;23.556;2023-05-20T16:08:49;4.33;;;3.93;;
10465;SDS011;5280;42.600;23.556;2023-05-20T16:11:16;4.40;;;3.90;;
10465;SDS011;5280;42.600;23.556;2023-05-20T16:13:42;4.03;;;3.50;;
10465;SDS011;5280;42.600;23.556;2023-05-20T16:16:09;4.73;;;4.27;;